sensor_id;sensor_type;location;lat;lon;timestamp;pressure;altitude;pressure_sealevel;temperature;humidity
44138;BME280;29800;55.942;37.314;2023-05-01T00:01:03;98565.81;;;7.13;84.44
44138;BME280;29800;55.942;37.314;2023-05-01T00:03:31;98551.41;;;7.12;84.61
44138;BME280;29800;55.942;37.314;2023-05-01T00:05:59;98545.16;;;7.12;84.14
44138;BME280;29800;55.942;37.314;2023-05-01T00:08:26;98543.50;;;7.11;84.93
44138;BME280;29800;55.942;37.314;2023-05-01T00:10:52;98536.13;;;7.11;84.01
44138;BME280;29800;55.942;37.314;2023-05-01T00:13:18;98540.78;;;7.11;84.39
44138;BME280;29800;55.942;37.314;2023-05-01T00:15:48;98539.97;;;7.10;84.39
44138;BME280;29800;55.942;37.314;2023-05-01T00:18:14;98534.50;;;7.10;84.32
44138;BME280;29800;55.942;37.314;2023-05-01T00:20:41;98531.78;;;7.10;84.57
44138;BME280;29800;55.942;37.314;2023-05-01T00:23:07;98533.94;;;7.08;84.00
44138;BME280;29800;55.942;37.314;2023-05-01T00:25:34;98546.47;;;7.09;84.18
44138;BME280;29800;55.942;37.314;2023-05-01T00:28:00;98536.94;;;7.07;84.41
44138;BME280;29800;55.942;37.314;2023-05-01T00:30:27;98539.66;;;7.07;84.00
44138;BME280;29800;55.942;37.314;2023-05-01T00:32:53;98526.31;;;7.05;84.34
44138;BME280;29800;55.942;37.314;2023-05-01T00:35:19;98544.50;;;7.05;84.29
44138;BME280;29800;55.942;37.314;2023-05-01T00:37:45;98548.56;;;7.02;84.21
44138;BME280;29800;55.942;37.314;2023-05-01T00:40:12;98551.31;;;7.02;84.37
44138;BME280;29800;55.942;37.314;2023-05-01T00:42:41;98550.19;;;7.03;84.43
44138;BME280;29800;55.942;37.314;2023-05-01T00:45:08;98549.09;;;6.99;84.48
44138;BME280;29800;55.942;37.314;2023-05-01T00:47:35;98558.63;;;7.02;84.18
44138;BME280;29800;55.942;37.314;2023-05-01T00:50:03;98554.28;;;7.01;84.40
44138;BME280;29800;55.942;37.314;2023-05-01T00:52:30;98554.53;;;6.99;84.28
44138;BME280;29800;55.942;37.314;2023-05-01T00:54:57;98551.50;;;6.95;84.65
44138;BME280;29800;55.942;37.314;2023-05-01T00:57:23;98549.84;;;6.94;83.96
44138;BME280;29800;55.942;37.314;2023-05-01T00:59:50;98538.97;;;6.94;84.34
44138;BME280;29800;55.942;37.314;2023-05-01T01:02:16;98532.47;;;6.95;84.78
44138;BME280;29800;55.942;37.314;2023-05-01T01:04:44;98531.63;;;6.95;84.32
44138;BME280;29800;55.942;37.314;2023-05-01T01:17:33;98548.53;;;6.97;84.28
44138;BME280;29800;55.942;37.314;2023-05-01T01:28:59;98568.69;;;7.01;84.60
44138;BME280;29800;55.942;37.314;2023-05-01T01:34:19;98568.63;;;6.96;85.03
44138;BME280;29800;55.942;37.314;2023-05-01T01:37:03;98566.22;;;6.99;85.13
44138;BME280;29800;55.942;37.314;2023-05-01T01:40:02;98558.31;;;6.98;85.22
44138;BME280;29800;55.942;37.314;2023-05-01T01:42:41;98550.41;;;6.96;84.85
44138;BME280;29800;55.942;37.314;2023-05-01T01:45:10;98543.75;;;7.09;85.06
44138;BME280;29800;55.942;37.314;2023-05-01T01:47:40;98532.25;;;7.02;84.50
44138;BME280;29800;55.942;37.314;2023-05-01T01:50:09;98526.22;;;7.00;84.87
44138;BME280;29800;55.942;37.314;2023-05-01T01:52:37;98525.66;;;6.98;85.10
44138;BME280;29800;55.942;37.314;2023-05-01T01:55:10;98528.66;;;6.96;85.29
44138;BME280;29800;55.942;37.314;2023-05-01T01:57:39;98525.13;;;6.96;85.19
44138;BME280;29800;55.942;37.314;2023-05-01T02:00:09;98514.47;;;6.94;84.73
44138;BME280;29800;55.942;37.314;2023-05-01T02:02:46;98518.59;;;6.97;85.01
44138;BME280;29800;55.942;37.314;2023-05-01T02:05:15;98525.66;;;6.98;85.43
44138;BME280;29800;55.942;37.314;2023-05-01T02:07:46;98531.09;;;6.98;84.79
44138;BME280;29800;55.942;37.314;2023-05-01T02:10:14;98540.94;;;6.99;84.81
44138;BME280;29800;55.942;37.314;2023-05-01T02:12:43;98530.59;;;7.01;85.26
44138;BME280;29800;55.942;37.314;2023-05-01T02:15:16;98511.31;;;7.03;85.24
44138;BME280;29800;55.942;37.314;2023-05-01T02:17:44;98497.16;;;7.01;84.82
44138;BME280;29800;55.942;37.314;2023-05-01T02:20:12;98487.06;;;7.01;85.26
44138;BME280;29800;55.942;37.314;2023-05-01T02:22:39;98486.25;;;7.01;85.15
44138;BME280;29800;55.942;37.314;2023-05-01T02:25:12;98491.19;;;7.04;85.59
44138;BME280;29800;55.942;37.314;2023-05-01T02:27:49;98507.25;;;7.05;85.19
44138;BME280;29800;55.942;37.314;2023-05-01T02:30:18;98516.75;;;7.03;85.14
44138;BME280;29800;55.942;37.314;2023-05-01T02:32:44;98506.66;;;7.03;85.70
44138;BME280;29800;55.942;37.314;2023-05-01T02:35:11;98499.59;;;7.02;85.49
44138;BME280;29800;55.942;37.314;2023-05-01T02:37:38;98503.41;;;7.01;85.68
44138;BME280;29800;55.942;37.314;2023-05-01T02:40:05;98516.50;;;7.04;85.79
44138;BME280;29800;55.942;37.314;2023-05-01T02:42:33;98513.78;;;7.04;85.38
44138;BME280;29800;55.942;37.314;2023-05-01T02:45:05;98509.97;;;7.05;84.96
44138;BME280;29800;55.942;37.314;2023-05-01T02:47:38;98504.00;;;7.08;85.40
44138;BME280;29800;55.942;37.314;2023-05-01T02:50:07;98514.88;;;7.08;84.99
44138;BME280;29800;55.942;37.314;2023-05-01T02:52:35;98526.91;;;7.12;85.61
44138;BME280;29800;55.942;37.314;2023-05-01T02:55:22;98544.34;;;7.16;85.07
44138;BME280;29800;55.942;37.314;2023-05-01T02:57:52;98543.84;;;7.20;85.47
44138;BME280;29800;55.942;37.314;2023-05-01T03:00:18;98540.88;;;7.21;85.41
44138;BME280;29800;55.942;37.314;2023-05-01T03:02:45;98543.59;;;7.21;85.26
44138;BME280;29800;55.942;37.314;2023-05-01T03:05:12;98538.47;;;7.25;85.73
44138;BME280;29800;55.942;37.314;2023-05-01T03:07:38;98547.72;;;7.24;85.55
44138;BME280;29800;55.942;37.314;2023-05-01T03:10:05;98549.06;;;7.26;85.29
44138;BME280;29800;55.942;37.314;2023-05-01T03:12:33;98558.91;;;7.27;84.83
44138;BME280;29800;55.942;37.314;2023-05-01T03:14:59;98568.72;;;7.28;85.17
44138;BME280;29800;55.942;37.314;2023-05-01T03:17:25;98572.25;;;7.29;84.64
44138;BME280;29800;55.942;37.314;2023-05-01T03:19:52;98571.19;;;7.30;85.51
44138;BME280;29800;55.942;37.314;2023-05-01T03:22:18;98558.13;;;7.32;85.20
44138;BME280;29800;55.942;37.314;2023-05-01T03:24:44;98561.91;;;7.31;85.13
44138;BME280;29800;55.942;37.314;2023-05-01T03:27:12;98563.88;;;7.35;85.18
44138;BME280;29800;55.942;37.314;2023-05-01T03:29:38;98560.09;;;7.36;85.04
44138;BME280;29800;55.942;37.314;2023-05-01T03:32:05;98558.16;;;7.37;84.79
44138;BME280;29800;55.942;37.314;2023-05-01T03:34:31;98551.41;;;7.40;85.25
44138;BME280;29800;55.942;37.314;2023-05-01T03:36:58;98549.50;;;7.40;84.98
44138;BME280;29800;55.942;37.314;2023-05-01T03:39:26;98549.50;;;7.40;85.06
44138;BME280;29800;55.942;37.314;2023-05-01T03:42:22;98544.84;;;7.41;84.01
44138;BME280;29800;55.942;37.314;2023-05-01T03:44:52;98558.47;;;7.41;84.47
44138;BME280;29800;55.942;37.314;2023-05-01T03:47:18;98548.13;;;7.43;84.26
44138;BME280;29800;55.942;37.314;2023-05-01T03:49:45;98548.13;;;7.43;84.94
44138;BME280;29800;55.942;37.314;2023-05-01T03:52:11;98554.16;;;7.45;84.60
44138;BME280;29800;55.942;37.314;2023-05-01T03:54:38;98564.28;;;7.49;84.84
44138;BME280;29800;55.942;37.314;2023-05-01T03:57:22;98563.19;;;7.50;84.77
44138;BME280;29800;55.942;37.314;2023-05-01T03:59:49;98563.75;;;7.52;84.65
44138;BME280;29800;55.942;37.314;2023-05-01T04:02:17;98562.72;;;7.59;84.94
44138;BME280;29800;55.942;37.314;2023-05-01T04:04:45;98557.97;;;7.76;85.21
44138;BME280;29800;55.942;37.314;2023-05-01T04:07:12;98561.03;;;7.85;84.93
44138;BME280;29800;55.942;37.314;2023-05-01T04:09:39;98560.56;;;7.98;83.89
44138;BME280;29800;55.942;37.314;2023-05-01T04:12:06;98545.66;;;8.06;83.56
44138;BME280;29800;55.942;37.314;2023-05-01T04:14:32;98550.63;;;8.19;83.28
44138;BME280;29800;55.942;37.314;2023-05-01T04:16:59;98550.66;;;8.24;82.50
44138;BME280;29800;55.942;37.314;2023-05-01T04:19:27;98553.97;;;8.32;81.86
44138;BME280;29800;55.942;37.314;2023-05-01T04:21:57;98559.47;;;8.42;81.40
44138;BME280;29800;55.942;37.314;2023-05-01T04:24:25;98566.38;;;8.50;81.87
44138;BME280;29800;55.942;37.314;2023-05-01T04:26:52;98566.69;;;8.58;81.05
44138;BME280;29800;55.942;37.314;2023-05-01T04:29:19;98565.91;;;8.68;81.44
44138;BME280;29800;55.942;37.314;2023-05-01T04:31:45;98564.88;;;8.79;80.97
44138;BME280;29800;55.942;37.314;2023-05-01T04:34:12;98560.25;;;8.90;80.20
44138;BME280;29800;55.942;37.314;2023-05-01T04:36:38;98559.72;;;8.98;79.87
44138;BME280;29800;55.942;37.314;2023-05-01T04:39:05;98566.31;;;9.08;79.03
44138;BME280;29800;55.942;37.314;2023-05-01T04:41:32;98570.72;;;9.19;78.87
44138;BME280;29800;55.942;37.314;2023-05-01T04:43:58;98572.13;;;9.32;78.00
44138;BME280;29800;55.942;37.314;2023-05-01T04:46:24;98577.59;;;9.37;77.65
44138;BME280;29800;55.942;37.314;2023-05-01T04:48:51;98578.97;;;9.40;77.10
44138;BME280;29800;55.942;37.314;2023-05-01T04:51:20;98584.44;;;9.45;76.93
44138;BME280;29800;55.942;37.314;2023-05-01T04:53:47;98587.72;;;9.52;76.61
44138;BME280;29800;55.942;37.314;2023-05-01T04:56:19;98584.97;;;9.57;76.41
44138;BME280;29800;55.942;37.314;2023-05-01T04:58:48;98583.09;;;9.63;75.81
44138;BME280;29800;55.942;37.314;2023-05-01T05:01:19;98584.44;;;9.70;75.54
44138;BME280;29800;55.942;37.314;2023-05-01T05:03:46;98586.63;;;9.73;74.88
44138;BME280;29800;55.942;37.314;2023-05-01T05:06:14;98589.63;;;9.77;74.94
44138;BME280;29800;55.942;37.314;2023-05-01T05:08:40;98582.00;;;9.79;74.99
44138;BME280;29800;55.942;37.314;2023-05-01T05:11:10;98588.81;;;9.87;74.76
44138;BME280;29800;55.942;37.314;2023-05-01T05:13:57;98589.94;;;9.91;74.13
44138;BME280;29800;55.942;37.314;2023-05-01T05:16:23;98601.66;;;9.97;74.28
44138;BME280;29800;55.942;37.314;2023-05-01T05:18:50;98600.31;;;9.99;74.01
44138;BME280;29800;55.942;37.314;2023-05-01T05:21:17;98603.03;;;10.04;73.86
44138;BME280;29800;55.942;37.314;2023-05-01T05:23:48;98596.75;;;10.09;73.69
44138;BME280;29800;55.942;37.314;2023-05-01T05:26:15;98591.81;;;10.16;73.72
44138;BME280;29800;55.942;37.314;2023-05-01T05:28:42;98594.28;;;10.18;73.58
44138;BME280;29800;55.942;37.314;2023-05-01T05:31:08;98601.94;;;10.21;73.38
44138;BME280;29800;55.942;37.314;2023-05-01T05:33:35;98597.84;;;10.23;73.48
44138;BME280;29800;55.942;37.314;2023-05-01T05:36:03;98597.28;;;10.26;73.43
44138;BME280;29800;55.942;37.314;2023-05-01T05:38:36;98593.19;;;10.34;72.64
44138;BME280;29800;55.942;37.314;2023-05-01T05:41:05;98595.91;;;10.29;72.32
44138;BME280;29800;55.942;37.314;2023-05-01T05:43:32;98593.69;;;10.31;72.10
44138;BME280;29800;55.942;37.314;2023-05-01T05:45:59;98583.91;;;10.35;71.96
44138;BME280;29800;55.942;37.314;2023-05-01T05:48:30;98587.69;;;10.39;72.14
44138;BME280;29800;55.942;37.314;2023-05-01T05:50:56;98589.06;;;10.42;71.95
44138;BME280;29800;55.942;37.314;2023-05-01T05:53:23;98593.16;;;10.50;71.28
44138;BME280;29800;55.942;37.314;2023-05-01T05:55:50;98596.69;;;10.55;70.70
44138;BME280;29800;55.942;37.314;2023-05-01T05:58:17;98589.59;;;10.59;70.45
44138;BME280;29800;55.942;37.314;2023-05-01T06:00:49;98604.06;;;10.65;70.69
44138;BME280;29800;55.942;37.314;2023-05-01T06:03:15;98606.47;;;10.77;70.41
44138;BME280;29800;55.942;37.314;2023-05-01T06:05:43;98619.63;;;10.80;70.21
44138;BME280;29800;55.942;37.314;2023-05-01T06:08:09;98623.16;;;10.85;70.30
44138;BME280;29800;55.942;37.314;2023-05-01T06:10:37;98632.97;;;10.97;70.63
44138;BME280;29800;55.942;37.314;2023-05-01T06:13:05;98636.56;;;10.92;70.35
44138;BME280;29800;55.942;37.314;2023-05-01T06:15:36;98640.69;;;10.84;70.42
44138;BME280;29800;55.942;37.314;2023-05-01T06:18:04;98643.16;;;10.81;70.45
44138;BME280;29800;55.942;37.314;2023-05-01T06:20:31;98633.28;;;10.85;70.30
44138;BME280;29800;55.942;37.314;2023-05-01T06:22:57;98624.47;;;10.98;70.01
44138;BME280;29800;55.942;37.314;2023-05-01T06:25:36;98627.75;;;11.00;69.69
44138;BME280;29800;55.942;37.314;2023-05-01T06:28:03;98631.38;;;10.85;69.67
44138;BME280;29800;55.942;37.314;2023-05-01T06:30:31;98634.16;;;10.70;69.35
44138;BME280;29800;55.942;37.314;2023-05-01T06:32:58;98647.31;;;10.63;69.53
44138;BME280;29800;55.942;37.314;2023-05-01T06:35:24;98650.91;;;10.43;69.79
44138;BME280;29800;55.942;37.314;2023-05-01T06:37:51;98635.31;;;10.33;70.24
44138;BME280;29800;55.942;37.314;2023-05-01T06:40:17;98652.78;;;10.27;70.06
44138;BME280;29800;55.942;37.314;2023-05-01T06:42:43;98661.00;;;10.22;69.97
44138;BME280;29800;55.942;37.314;2023-05-01T06:45:10;98657.16;;;10.12;69.84
44138;BME280;29800;55.942;37.314;2023-05-01T06:47:36;98668.38;;;10.06;70.13
44138;BME280;29800;55.942;37.314;2023-05-01T06:50:03;98664.53;;;10.02;69.73
44138;BME280;29800;55.942;37.314;2023-05-01T06:52:32;98662.63;;;10.02;69.53
44138;BME280;29800;55.942;37.314;2023-05-01T06:54:59;98676.84;;;10.04;68.78
44138;BME280;29800;55.942;37.314;2023-05-01T06:57:26;98674.66;;;10.11;69.48
44138;BME280;29800;55.942;37.314;2023-05-01T06:59:52;98683.44;;;10.19;69.16
44138;BME280;29800;55.942;37.314;2023-05-01T07:02:18;98683.97;;;10.16;68.71
44138;BME280;29800;55.942;37.314;2023-05-01T07:04:45;98680.69;;;10.24;69.41
44138;BME280;29800;55.942;37.314;2023-05-01T07:07:12;98683.97;;;10.26;69.52
44138;BME280;29800;55.942;37.314;2023-05-01T07:09:39;98670.56;;;10.29;68.90
44138;BME280;29800;55.942;37.314;2023-05-01T07:12:05;98683.44;;;10.34;67.63
44138;BME280;29800;55.942;37.314;2023-05-01T07:14:33;98689.44;;;10.36;67.48
44138;BME280;29800;55.942;37.314;2023-05-01T07:17:01;98681.28;;;10.41;66.83
44138;BME280;29800;55.942;37.314;2023-05-01T07:19:27;98684.00;;;10.52;66.23
44138;BME280;29800;55.942;37.314;2023-05-01T07:21:53;98680.69;;;10.60;65.86
44138;BME280;29800;55.942;37.314;2023-05-01T07:24:20;98682.88;;;10.68;64.59
44138;BME280;29800;55.942;37.314;2023-05-01T07:26:46;98684.50;;;10.74;64.94
44138;BME280;29800;55.942;37.314;2023-05-01T07:29:13;98694.63;;;10.84;63.99
44138;BME280;29800;55.942;37.314;2023-05-01T07:31:41;98694.88;;;10.88;63.70
44138;BME280;29800;55.942;37.314;2023-05-01T07:34:07;98698.16;;;10.90;63.75
44138;BME280;29800;55.942;37.314;2023-05-01T07:36:34;98696.50;;;10.94;63.95
44138;BME280;29800;55.942;37.314;2023-05-01T07:39:00;98697.03;;;10.96;63.29
44138;BME280;29800;55.942;37.314;2023-05-01T07:41:26;98701.97;;;10.99;62.96
44138;BME280;29800;55.942;37.314;2023-05-01T07:43:53;98711.25;;;10.98;63.00
44138;BME280;29800;55.942;37.314;2023-05-01T07:46:19;98722.22;;;10.98;63.25
44138;BME280;29800;55.942;37.314;2023-05-01T07:48:45;98708.53;;;10.93;63.48
44138;BME280;29800;55.942;37.314;2023-05-01T07:51:13;98712.38;;;10.92;63.72
44138;BME280;29800;55.942;37.314;2023-05-01T07:53:39;98723.88;;;10.94;64.13
44138;BME280;29800;55.942;37.314;2023-05-01T07:56:07;98729.34;;;10.94;63.98
44138;BME280;29800;55.942;37.314;2023-05-01T07:58:35;98731.81;;;10.90;64.06
44138;BME280;29800;55.942;37.314;2023-05-01T08:01:02;98732.66;;;10.85;62.86
44138;BME280;29800;55.942;37.314;2023-05-01T08:03:29;98748.53;;;10.78;62.19
44138;BME280;29800;55.942;37.314;2023-05-01T08:05:56;98745.00;;;10.73;62.53
44138;BME280;29800;55.942;37.314;2023-05-01T08:08:23;98754.56;;;10.70;62.54
44138;BME280;29800;55.942;37.314;2023-05-01T08:10:50;98759.50;;;10.73;62.51
44138;BME280;29800;55.942;37.314;2023-05-01T08:13:16;98764.69;;;10.80;62.09
44138;BME280;29800;55.942;37.314;2023-05-01T08:15:45;98773.16;;;10.78;62.55
44138;BME280;29800;55.942;37.314;2023-05-01T08:18:12;98770.97;;;10.70;62.91
44138;BME280;29800;55.942;37.314;2023-05-01T08:20:47;98777.00;;;10.67;63.35
44138;BME280;29800;55.942;37.314;2023-05-01T08:23:17;98778.66;;;10.68;63.44
44138;BME280;29800;55.942;37.314;2023-05-01T08:25:43;98790.13;;;10.70;63.01
44138;BME280;29800;55.942;37.314;2023-05-01T08:28:16;98788.75;;;10.88;64.02
44138;BME280;29800;55.942;37.314;2023-05-01T08:30:43;98788.50;;;10.84;62.43
44138;BME280;29800;55.942;37.314;2023-05-01T08:33:09;98789.31;;;10.85;62.55
44138;BME280;29800;55.942;37.314;2023-05-01T08:35:35;98783.03;;;10.84;62.43
44138;BME280;29800;55.942;37.314;2023-05-01T08:38:02;98786.84;;;10.89;61.87
44138;BME280;29800;55.942;37.314;2023-05-01T08:40:31;98792.31;;;10.94;60.90
44138;BME280;29800;55.942;37.314;2023-05-01T08:43:00;98801.63;;;10.93;61.91
44138;BME280;29800;55.942;37.314;2023-05-01T08:45:28;98799.44;;;10.95;62.12
44138;BME280;29800;55.942;37.314;2023-05-01T08:48:07;98812.03;;;11.01;61.72
44138;BME280;29800;55.942;37.314;2023-05-01T08:50:35;98810.34;;;11.05;62.95
44138;BME280;29800;55.942;37.314;2023-05-01T08:53:04;98815.59;;;11.12;62.08
44138;BME280;29800;55.942;37.314;2023-05-01T08:55:31;98815.28;;;11.18;62.17
44138;BME280;29800;55.942;37.314;2023-05-01T08:57:58;98824.03;;;11.31;61.65
44138;BME280;29800;55.942;37.314;2023-05-01T09:00:25;98819.09;;;11.38;60.19
44138;BME280;29800;55.942;37.314;2023-05-01T09:02:53;98822.63;;;11.44;59.78
44138;BME280;29800;55.942;37.314;2023-05-01T09:05:20;98828.91;;;11.49;59.75
44138;BME280;29800;55.942;37.314;2023-05-01T09:07:46;98829.72;;;11.55;58.97
44138;BME280;29800;55.942;37.314;2023-05-01T09:10:15;98830.25;;;11.57;59.04
44138;BME280;29800;55.942;37.314;2023-05-01T09:12:46;98830.53;;;11.55;58.61
44138;BME280;29800;55.942;37.314;2023-05-01T09:15:14;98833.84;;;11.47;57.92
44138;BME280;29800;55.942;37.314;2023-05-01T09:17:41;98851.38;;;11.41;58.22
44138;BME280;29800;55.942;37.314;2023-05-01T09:20:09;98848.66;;;11.41;58.46
44138;BME280;29800;55.942;37.314;2023-05-01T09:22:35;98859.34;;;11.32;58.22
44138;BME280;29800;55.942;37.314;2023-05-01T09:25:02;98854.44;;;11.29;58.48
44138;BME280;29800;55.942;37.314;2023-05-01T09:27:34;98852.50;;;11.25;59.29
44138;BME280;29800;55.942;37.314;2023-05-01T09:30:00;98853.38;;;11.20;58.97
44138;BME280;29800;55.942;37.314;2023-05-01T09:32:30;98851.97;;;11.17;59.06
44138;BME280;29800;55.942;37.314;2023-05-01T09:35:11;98863.19;;;11.26;59.29
44138;BME280;29800;55.942;37.314;2023-05-01T09:37:39;98873.34;;;11.26;59.40
44138;BME280;29800;55.942;37.314;2023-05-01T09:40:13;98863.47;;;11.19;59.16
44138;BME280;29800;55.942;37.314;2023-05-01T09:42:48;98876.06;;;11.05;59.01
44138;BME280;29800;55.942;37.314;2023-05-01T09:45:15;98872.81;;;10.98;58.98
44138;BME280;29800;55.942;37.314;2023-05-01T09:47:42;98881.84;;;10.98;59.58
44138;BME280;29800;55.942;37.314;2023-05-01T09:50:32;98885.38;;;10.89;59.27
44138;BME280;29800;55.942;37.314;2023-05-01T09:52:59;98883.75;;;10.82;60.18
44138;BME280;29800;55.942;37.314;2023-05-01T09:55:25;98886.78;;;10.81;59.81
44138;BME280;29800;55.942;37.314;2023-05-01T09:57:52;98890.31;;;10.76;60.10
44138;BME280;29800;55.942;37.314;2023-05-01T10:00:18;98886.19;;;10.63;60.04
44138;BME280;29800;55.942;37.314;2023-05-01T10:02:48;98894.66;;;10.46;60.69
44138;BME280;29800;55.942;37.314;2023-05-01T10:05:14;98895.72;;;10.35;61.31
44138;BME280;29800;55.942;37.314;2023-05-01T10:08:13;98900.13;;;10.46;61.63
44138;BME280;29800;55.942;37.314;2023-05-01T10:10:42;98895.97;;;10.39;61.12
44138;BME280;29800;55.942;37.314;2023-05-01T10:13:13;98914.53;;;10.32;60.98
44138;BME280;29800;55.942;37.314;2023-05-01T10:15:40;98927.09;;;10.27;60.88
44138;BME280;29800;55.942;37.314;2023-05-01T10:18:09;98923.81;;;10.20;60.65
44138;BME280;29800;55.942;37.314;2023-05-01T10:20:39;98933.63;;;10.16;60.92
44138;BME280;29800;55.942;37.314;2023-05-01T10:23:05;98933.03;;;10.09;60.69
44138;BME280;29800;55.942;37.314;2023-05-01T10:25:32;98955.69;;;9.99;61.14
44138;BME280;29800;55.942;37.314;2023-05-01T10:28:02;98939.03;;;10.06;61.46
44138;BME280;29800;55.942;37.314;2023-05-01T10:30:29;98961.91;;;9.89;61.30
44138;BME280;29800;55.942;37.314;2023-05-01T10:32:57;98961.78;;;9.69;61.16
44138;BME280;29800;55.942;37.314;2023-05-01T10:35:28;98969.66;;;9.60;62.34
44138;BME280;29800;55.942;37.314;2023-05-01T10:38:10;98973.13;;;9.50;62.26
44138;BME280;29800;55.942;37.314;2023-05-01T10:43:34;98987.06;;;9.49;62.75
44138;BME280;29800;55.942;37.314;2023-05-01T10:51:22;98994.56;;;9.31;63.13
44138;BME280;29800;55.942;37.314;2023-05-01T10:56:40;99009.16;;;8.88;62.63
44138;BME280;29800;55.942;37.314;2023-05-01T10:59:07;99018.00;;;8.73;63.52
44138;BME280;29800;55.942;37.314;2023-05-01T11:01:38;99022.75;;;8.60;64.11
44138;BME280;29800;55.942;37.314;2023-05-01T11:09:50;99030.69;;;8.40;65.04
44138;BME280;29800;55.942;37.314;2023-05-01T11:12:52;99033.34;;;8.35;65.66
44138;BME280;29800;55.942;37.314;2023-05-01T11:15:31;99035.97;;;8.29;66.04
44138;BME280;29800;55.942;37.314;2023-05-01T11:18:00;99048.34;;;8.15;66.25
44138;BME280;29800;55.942;37.314;2023-05-01T11:22:55;99051.25;;;8.08;65.93
44138;BME280;29800;55.942;37.314;2023-05-01T11:25:25;99053.88;;;8.03;66.89
44138;BME280;29800;55.942;37.314;2023-05-01T11:27:55;99059.19;;;8.10;66.69
44138;BME280;29800;55.942;37.314;2023-05-01T11:30:23;99061.78;;;8.22;68.35
44138;BME280;29800;55.942;37.314;2023-05-01T11:32:50;99057.69;;;8.02;67.36
44138;BME280;29800;55.942;37.314;2023-05-01T11:35:21;99061.91;;;7.93;67.47
44138;BME280;29800;55.942;37.314;2023-05-01T11:37:48;99066.13;;;7.84;67.85
44138;BME280;29800;55.942;37.314;2023-05-01T11:40:26;99069.00;;;7.77;68.37
44138;BME280;29800;55.942;37.314;2023-05-01T11:43:06;99079.81;;;7.72;68.76
44138;BME280;29800;55.942;37.314;2023-05-01T11:45:35;99086.44;;;7.59;69.44
44138;BME280;29800;55.942;37.314;2023-05-01T11:48:02;99090.06;;;7.65;69.70
44138;BME280;29800;55.942;37.314;2023-05-01T11:50:32;99092.88;;;7.70;69.82
44138;BME280;29800;55.942;37.314;2023-05-01T11:53:21;99105.06;;;7.50;69.34
44138;BME280;29800;55.942;37.314;2023-05-01T11:55:47;99097.97;;;7.49;69.25
44138;BME280;29800;55.942;37.314;2023-05-01T11:58:14;99098.31;;;7.53;70.08
44138;BME280;29800;55.942;37.314;2023-05-01T12:00:42;99098.38;;;7.41;69.56
44138;BME280;29800;55.942;37.314;2023-05-01T12:03:12;99104.72;;;7.30;70.42
44138;BME280;29800;55.942;37.314;2023-05-01T12:05:43;99104.34;;;7.26;70.36
44138;BME280;29800;55.942;37.314;2023-05-01T12:08:17;99107.91;;;7.27;70.40
44138;BME280;29800;55.942;37.314;2023-05-01T12:10:46;99117.06;;;7.21;71.16
44138;BME280;29800;55.942;37.314;2023-05-01T12:13:14;99118.34;;;7.18;71.55
44138;BME280;29800;55.942;37.314;2023-05-01T12:15:43;99113.75;;;7.18;71.55
44138;BME280;29800;55.942;37.314;2023-05-01T12:18:11;99122.16;;;7.17;71.28
44138;BME280;29800;55.942;37.314;2023-05-01T12:20:44;99127.13;;;7.20;71.70
44138;BME280;29800;55.942;37.314;2023-05-01T12:23:15;99130.41;;;7.22;72.44
44138;BME280;29800;55.942;37.314;2023-05-01T12:25:43;99132.66;;;7.25;71.68
44138;BME280;29800;55.942;37.314;2023-05-01T12:28:13;99135.13;;;7.27;71.03
44138;BME280;29800;55.942;37.314;2023-05-01T12:30:41;99135.72;;;7.29;71.28
44138;BME280;29800;55.942;37.314;2023-05-01T12:33:13;99152.38;;;7.32;71.17
44138;BME280;29800;55.942;37.314;2023-05-01T12:35:40;99148.38;;;7.35;71.13
44138;BME280;29800;55.942;37.314;2023-05-01T12:38:15;99148.13;;;7.36;70.81
44138;BME280;29800;55.942;37.314;2023-05-01T12:40:56;99155.28;;;7.43;70.07
44138;BME280;29800;55.942;37.314;2023-05-01T12:43:36;99155.19;;;7.38;70.13
44138;BME280;29800;55.942;37.314;2023-05-01T12:46:04;99152.94;;;7.46;69.67
44138;BME280;29800;55.942;37.314;2023-05-01T12:48:31;99159.53;;;7.50;69.98
44138;BME280;29800;55.942;37.314;2023-05-01T12:50:59;99159.84;;;7.54;69.76
44138;BME280;29800;55.942;37.314;2023-05-01T12:53:27;99155.34;;;7.60;69.67
44138;BME280;29800;55.942;37.314;2023-05-01T12:55:55;99165.50;;;7.64;69.41
44138;BME280;29800;55.942;37.314;2023-05-01T12:58:23;99165.59;;;7.69;69.78
44138;BME280;29800;55.942;37.314;2023-05-01T13:00:51;99167.06;;;7.77;69.45
44138;BME280;29800;55.942;37.314;2023-05-01T13:03:26;99169.69;;;8.01;70.09
44138;BME280;29800;55.942;37.314;2023-05-01T13:06:01;99170.75;;;8.00;67.84
44138;BME280;29800;55.942;37.314;2023-05-01T13:08:32;99170.31;;;8.08;68.79
44138;BME280;29800;55.942;37.314;2023-05-01T13:11:12;99175.28;;;8.11;67.90
44138;BME280;29800;55.942;37.314;2023-05-01T13:13:39;99181.31;;;8.30;68.36
44138;BME280;29800;55.942;37.314;2023-05-01T13:16:07;99181.41;;;8.35;67.90
44138;BME280;29800;55.942;37.314;2023-05-01T13:18:45;99178.75;;;8.57;67.15
44138;BME280;29800;55.942;37.314;2023-05-01T13:21:14;99192.50;;;8.62;66.10
44138;BME280;29800;55.942;37.314;2023-05-01T13:23:42;99186.63;;;8.54;65.20
44138;BME280;29800;55.942;37.314;2023-05-01T13:26:16;99187.53;;;8.59;66.00
44138;BME280;29800;55.942;37.314;2023-05-01T13:28:43;99185.38;;;8.61;65.79
44138;BME280;29800;55.942;37.314;2023-05-01T13:31:11;99194.59;;;8.77;65.58
44138;BME280;29800;55.942;37.314;2023-05-01T13:33:40;99196.25;;;8.78;65.80
44138;BME280;29800;55.942;37.314;2023-05-01T13:36:12;99204.69;;;8.77;65.11
44138;BME280;29800;55.942;37.314;2023-05-01T13:38:50;99215.75;;;8.87;65.11
44138;BME280;29800;55.942;37.314;2023-05-01T13:41:20;99203.31;;;8.96;64.46
44138;BME280;29800;55.942;37.314;2023-05-01T13:43:51;99211.13;;;9.10;63.76
44138;BME280;29800;55.942;37.314;2023-05-01T13:46:20;99222.38;;;9.13;63.85